Time;durP1;ratioP1;P1;durP2;ratioP2;P2;SDS_P1;SDS_P2;PMS_P1;PMS_P2;Temp;Humidity;BMP_temperature;BMP_pressure;BME280_temperature;BME280_humidity;BME280_pressure;Samples;Min_cycle;Max_cycle;Signal;HPM_P1;HPM_P2
2022/09/26 00:01:06;;;;;;;17.70;16.17;;;;;;;12.95;100.00;98626.75;6246818;22;20207;-84
2022/09/26 00:03:34;;;;;;;17.60;15.97;;;;;;;12.98;100.00;98622.72;6273345;22;20222;-84
2022/09/26 00:06:02;;;;;;;18.60;17.00;;;;;;;12.96;100.00;98622.19;6273065;22;20183;-83
2022/09/26 00:08:29;;;;;;;18.67;16.87;;;;;;;12.93;100.00;98622.69;6272756;22;20256;-84
2022/09/26 00:10:57;;;;;;;18.13;16.43;;;;;;;13.00;100.00;98625.97;6273020;22;20217;-83
2022/09/26 00:13:25;;;;;;;19.70;17.90;;;;;;;12.98;100.00;98620.03;6272695;22;20210;-82
2022/09/26 00:15:52;;;;;;;18.47;16.77;;;;;;;12.98;100.00;98626.22;6273407;22;20659;-83
2022/09/26 00:18:19;;;;;;;19.93;18.13;;;;;;;12.93;100.00;98623.50;6271770;22;20210;-85
2022/09/26 00:20:46;;;;;;;19.80;18.00;;;;;;;12.93;100.00;98615.44;6220381;22;20540;-84
2022/09/26 00:23:13;;;;;;;20.43;18.47;;;;;;;12.97;100.00;98611.16;6272797;22;20206;-84
2022/09/26 00:25:50;;;;;;;19.90;18.10;;;;;;;13.01;100.00;98609.59;6272516;22;20213;-84
2022/09/26 00:28:17;;;;;;;19.60;17.80;;;;;;;12.96;100.00;98604.19;6271972;22;20229;-84
2022/09/26 00:30:44;;;;;;;20.07;18.27;;;;;;;12.93;100.00;98596.63;6245898;22;20208;-84
2022/09/26 00:33:11;;;;;;;20.13;18.27;;;;;;;13.01;100.00;98595.34;6245941;22;20667;-83
2022/09/26 00:35:38;;;;;;;20.43;18.63;;;;;;;12.92;100.00;98596.91;6272444;22;20207;-84
2022/09/26 00:38:05;;;;;;;20.00;18.30;;;;;;;12.95;100.00;98597.19;6244975;22;20209;-85
2022/09/26 00:40:32;;;;;;;19.20;17.50;;;;;;;12.82;100.00;98603.03;6272414;22;20206;-83
2022/09/26 00:42:58;;;;;;;20.70;18.90;;;;;;;12.86;100.00;98600.63;6272510;22;20291;-84
2022/09/26 00:45:31;;;;;;;19.57;17.87;;;;;;;12.85;100.00;98601.69;6273118;22;20225;-83
2022/09/26 00:48:03;;;;;;;20.50;18.57;;;;;;;12.86;100.00;98595.25;6223184;22;20594;-83
2022/09/26 00:50:35;;;;;;;20.00;18.30;;;;;;;12.83;100.00;98595.75;6217370;23;20207;-83
2022/09/26 00:53:09;;;;;;;20.60;18.90;;;;;;;12.78;100.00;98594.63;6192428;23;20230;-83
2022/09/26 00:55:38;;;;;;;21.63;19.73;;;;;;;12.82;100.00;98591.44;6217714;23;20221;-84
2022/09/26 00:58:09;;;;;;;21.00;19.20;;;;;;;12.72;100.00;98594.88;6242435;22;20282;-83
2022/09/26 01:00:38;;;;;;;22.47;20.53;;;;;;;12.73;100.00;98602.69;6217199;23;20212;-83
2022/09/26 01:03:08;;;;;;;20.50;18.80;;;;;;;12.70;100.00;98602.38;6241848;22;20294;-83
2022/09/26 01:05:36;;;;;;;21.10;19.37;;;;;;;12.70;100.00;98597.00;6243922;22;20214;-83
2022/09/26 01:08:03;;;;;;;21.17;19.33;;;;;;;12.71;100.00;98599.44;6216895;22;20225;-83
2022/09/26 01:10:30;;;;;;;22.43;20.53;;;;;;;12.72;100.00;98600.25;6242368;23;20666;-83
2022/09/26 01:13:00;;;;;;;21.83;19.97;;;;;;;12.79;100.00;98592.75;6217516;23;20218;-83
2022/09/26 01:15:27;;;;;;;21.07;19.37;;;;;;;12.75;100.00;98584.41;6243854;22;20210;-83
2022/09/26 01:17:54;;;;;;;22.13;20.23;;;;;;;12.77;100.00;98584.16;6241669;23;20257;-83
2022/09/26 01:20:50;;;;;;;22.33;20.43;;;;;;;12.70;100.00;98584.38;6216417;22;20207;-83
2022/09/26 01:23:44;;;;;;;21.60;19.73;;;;;;;12.68;100.00;98581.16;6231967;23;20199;-83
2022/09/26 01:26:20;;;;;;;21.87;19.97;;;;;;;12.65;100.00;98586.22;6243651;22;20287;-83
2022/09/26 01:28:52;;;;;;;21.53;19.73;;;;;;;12.60;100.00;98570.88;6242225;23;20239;-83
2022/09/26 01:32:47;;;;;;;21.83;19.93;;;;;;;12.54;100.00;98579.97;6243705;22;20240;-84
2022/09/26 01:34:54;;;;;;;22.73;20.77;;;;;;;12.57;100.00;98584.00;6246888;22;20591;-84
2022/09/26 01:37:39;;;;;;;21.73;19.93;;;;;;;12.64;100.00;98569.31;6274382;22;20210;-83
2022/09/26 01:40:09;;;;;;;22.07;20.17;;;;;;;12.61;100.00;98566.31;6246358;22;20217;-83
2022/09/26 01:42:45;;;;;;;22.07;20.07;;;;;;;12.63;100.00;98553.44;6222254;22;20242;-83
2022/09/26 01:45:21;;;;;;;22.03;20.17;;;;;;;12.61;100.00;98550.19;6247369;22;20274;-83
2022/09/26 01:48:08;;;;;;;22.27;20.23;;;;;;;12.47;100.00;98549.81;6221964;22;20262;-84
2022/09/26 01:50:40;;;;;;;22.57;20.67;;;;;;;12.40;100.00;98551.13;6272486;22;20565;-84
2022/09/26 01:53:26;;;;;;;23.03;20.93;;;;;;;12.42;100.00;98554.34;6247394;22;20217;-83
2022/09/26 01:56:10;;;;;;;23.23;21.23;;;;;;;12.47;100.00;98552.50;6248004;22;20582;-85
2022/09/26 01:58:42;;;;;;;22.30;20.37;;;;;;;12.41;100.00;98550.06;6186152;23;20248;-83
2022/09/26 02:01:10;;;;;;;22.13;20.27;;;;;;;12.36;100.00;98540.88;6216795;23;20543;-83
2022/09/26 02:03:45;;;;;;;22.37;20.50;;;;;;;12.31;100.00;98543.53;6191878;23;20551;-83
2022/09/26 02:06:16;;;;;;;21.47;19.57;;;;;;;12.28;100.00;98551.28;6243430;23;20522;-83
2022/09/26 02:08:47;;;;;;;22.30;20.47;;;;;;;12.27;100.00;98538.94;6242148;22;20636;-83
2022/09/26 02:11:16;;;;;;;22.90;21.00;;;;;;;12.29;100.00;98539.47;6216594;23;20275;-83
2022/09/26 02:13:45;;;;;;;23.10;21.03;;;;;;;12.33;100.00;98538.72;6267654;22;20222;-83
2022/09/26 02:16:48;;;;;;;22.60;20.60;;;;;;;12.29;100.00;98539.47;6241089;22;20204;-83
2022/09/26 02:19:26;;;;;;;23.17;21.07;;;;;;;12.29;100.00;98532.22;6241894;23;20592;-84
2022/09/26 02:21:54;;;;;;;22.63;20.63;;;;;;;12.25;100.00;98536.50;6257677;22;20204;-83
2022/09/26 02:24:22;;;;;;;23.97;21.70;;;;;;;12.30;100.00;98516.94;6256920;22;21140;-83
2022/09/26 02:26:49;;;;;;;24.87;22.77;;;;;;;12.32;100.00;98533.59;6232112;22;20214;-83
2022/09/26 02:29:19;;;;;;;23.90;21.87;;;;;;;12.24;100.00;98532.19;6246688;22;20218;-89
2022/09/26 02:31:56;;;;;;;24.70;22.47;;;;;;;12.24;100.00;98542.13;6222002;22;20291;-83
2022/09/26 02:34:24;;;;;;;24.83;22.77;;;;;;;12.28;100.00;98532.47;6221321;22;20210;-83
2022/09/26 02:36:52;;;;;;;28.65;26.35;;;;;;;12.26;100.00;98527.38;6272487;22;20386;-83
2022/09/26 02:39:18;;;;;;;25.03;22.83;;;;;;;12.28;100.00;98533.28;6246933;22;20221;-84
2022/09/26 02:41:55;;;;;;;26.73;24.33;;;;;;;12.41;100.00;98529.34;6222144;22;20670;-83
2022/09/26 02:44:43;;;;;;;26.80;24.50;;;;;;;12.33;100.00;98525.28;6221427;22;20194;-84
2022/09/26 02:47:41;;;;;;;26.93;24.43;;;;;;;12.17;100.00;98533.47;6221749;22;20241;-83
2022/09/26 02:50:36;;;;;;;26.50;24.17;;;;;;;12.17;100.00;98520.88;6220766;22;20720;-86
2022/09/26 02:53:17;;;;;;;27.23;24.63;;;;;;;12.19;100.00;98521.41;6247480;22;20713;-83
2022/09/26 02:56:12;;;;;;;26.63;24.33;;;;;;;12.17;100.00;98530.81;6248790;22;20228;-83
2022/09/26 02:58:53;;;;;;;27.03;24.63;;;;;;;12.16;100.00;98523.81;6240964;23;20236;-83
2022/09/26 03:02:09;;;;;;;27.43;25.00;;;;;;;12.22;100.00;98534.34;6259682;22;20213;-83
2022/09/26 03:04:43;;;;;;;27.07;24.57;;;;;;;12.25;100.00;98533.81;6236647;23;20204;-84
2022/09/26 03:07:13;;;;;;;27.23;24.83;;;;;;;12.28;100.00;98521.75;6257888;22;20229;-83
2022/09/26 03:09:41;;;;;;;26.47;24.07;;;;;;;12.28;100.00;98527.91;6201666;23;20206;-83
2022/09/26 03:12:09;;;;;;;27.67;25.17;;;;;;;12.28;100.00;98527.91;6236518;23;20286;-83
2022/09/26 03:14:37;;;;;;;25.00;22.90;;;;;;;12.24;100.00;98521.44;6216030;23;20215;-83
2022/09/26 03:17:04;;;;;;;25.63;23.40;;;;;;;12.20;100.00;98525.72;6215635;23;20281;-88
2022/09/26 03:19:36;;;;;;;26.07;23.77;;;;;;;12.21;100.00;98523.84;6215880;23;20214;-83
2022/09/26 03:22:04;;;;;;;25.63;23.33;;;;;;;12.19;100.00;98525.97;6214831;23;20737;-84
2022/09/26 03:24:35;;;;;;;26.03;23.63;;;;;;;12.21;100.00;98524.66;6215699;23;20210;-83
2022/09/26 03:27:03;;;;;;;25.70;23.30;;;;;;;12.18;100.00;98521.66;6242556;23;20241;-84
2022/09/26 03:29:33;;;;;;;25.57;23.27;;;;;;;12.21;100.00;98519.28;6215869;23;20236;-83
2022/09/26 03:32:00;;;;;;;25.73;23.43;;;;;;;12.22;100.00;98526.28;6215659;23;20238;-83
2022/09/26 03:34:26;;;;;;;25.73;23.50;;;;;;;12.26;100.00;98524.69;6152107;23;20201;-84
2022/09/26 03:36:56;;;;;;;25.27;23.07;;;;;;;12.25;100.00;98514.22;6242385;23;20663;-86
2022/09/26 03:39:22;;;;;;;23.90;21.90;;;;;;;12.26;100.00;98513.97;6215603;23;20217;-84
2022/09/26 03:41:58;;;;;;;23.83;21.73;;;;;;;12.24;100.00;98512.59;6192769;23;20211;-83
2022/09/26 03:44:26;;;;;;;24.73;22.53;;;;;;;12.24;100.00;98504.53;6215190;23;20281;-84
2022/09/26 03:47:02;;;;;;;24.57;22.37;;;;;;;12.23;100.00;98502.91;6218145;23;20662;-84
2022/09/26 03:49:29;;;;;;;24.20;22.03;;;;;;;12.22;100.00;98506.69;6215445;23;20211;-83
2022/09/26 03:51:56;;;;;;;24.63;22.33;;;;;;;12.21;100.00;98502.38;6201263;23;20699;-83
2022/09/26 03:54:23;;;;;;;22.30;20.40;;;;;;;12.22;100.00;98502.13;6213084;23;20233;-83
2022/09/26 03:56:49;;;;;;;21.73;19.93;;;;;;;12.26;100.00;98508.59;6240797;23;20211;-83
2022/09/26 03:59:16;;;;;;;20.63;18.93;;;;;;;12.25;100.00;98500.78;6215077;23;20294;-83
2022/09/26 04:01:44;;;;;;;15.63;14.33;;;;;;;12.29;100.00;98499.19;6216039;23;20218;-83
2022/09/26 04:04:15;;;;;;;16.87;15.43;;;;;;;12.27;100.00;98493.28;6214816;23;20209;-83
2022/09/26 04:06:43;;;;;;;16.60;15.20;;;;;;;12.23;100.00;98494.84;6215148;23;20215;-84
2022/09/26 04:09:11;;;;;;;15.73;14.43;;;;;;;12.22;100.00;98494.06;6215322;23;20217;-84
2022/09/26 04:11:45;;;;;;;16.20;14.70;;;;;;;12.21;100.00;98497.81;6215175;23;20284;-86
2022/09/26 04:14:12;;;;;;;16.27;14.87;;;;;;;12.22;100.00;98501.31;6242663;23;20214;-84
2022/09/26 04:16:39;;;;;;;15.37;14.00;;;;;;;12.24;100.00;98499.16;6188786;23;20257;-83
2022/09/26 04:19:32;;;;;;;17.53;15.87;;;;;;;12.29;100.00;98497.31;6236966;23;20211;-83
2022/09/26 04:21:59;;;;;;;18.03;16.43;;;;;;;12.27;100.00;98498.66;6214961;23;20240;-83
2022/09/26 04:24:29;;;;;;;17.20;15.70;;;;;;;12.21;100.00;98497.81;6185058;23;20207;-83
2022/09/26 04:26:56;;;;;;;17.63;16.10;;;;;;;12.17;100.00;98495.91;6212327;23;20187;-83
2022/09/26 04:29:23;;;;;;;18.23;16.73;;;;;;;12.16;100.00;98489.72;6185342;23;20605;-83
2022/09/26 04:32:08;;;;;;;18.17;16.37;;;;;;;12.19;100.00;98499.13;6171155;23;20235;-83
2022/09/26 04:35:04;;;;;;;17.60;16.10;;;;;;;12.21;100.00;98494.31;6211219;23;20232;-84
2022/09/26 04:37:35;;;;;;;17.17;15.67;;;;;;;12.18;100.00;98490.25;6211903;23;20285;-83
2022/09/26 04:40:03;;;;;;;17.80;16.30;;;;;;;12.15;100.00;98481.91;6170949;23;20234;-84
2022/09/26 04:42:33;;;;;;;17.63;16.13;;;;;;;12.17;100.00;98496.72;6184222;23;20210;-84
2022/09/26 04:45:00;;;;;;;24.80;21.97;;;;;;;12.18;100.00;98494.81;6185114;23;20209;-83
2022/09/26 04:47:26;;;;;;;24.67;22.13;;;;;;;12.17;100.00;98493.22;6161572;23;20298;-83
2022/09/26 04:50:31;;;;;;;19.90;18.10;;;;;;;12.16;100.00;98489.72;6179810;23;20243;-84
2022/09/26 04:53:06;;;;;;;20.13;18.33;;;;;;;12.19;100.00;98485.69;6179640;23;20218;-84
2022/09/26 04:55:43;;;;;;;19.00;17.37;;;;;;;12.21;100.00;98481.69;6200407;23;20268;-83
2022/09/26 04:58:10;;;;;;;20.00;18.27;;;;;;;12.21;100.00;98484.38;6240486;22;20205;-81
2022/09/26 05:00:45;;;;;;;20.63;18.63;;;;;;;12.15;100.00;98477.34;6239879;23;20261;-81
2022/09/26 05:03:15;;;;;;;19.60;17.80;;;;;;;12.17;100.00;98483.28;6240094;23;20524;-82
2022/09/26 05:05:46;;;;;;;19.17;17.53;;;;;;;12.18;100.00;98490.25;6240380;22;20214;-81
2022/09/26 05:08:13;;;;;;;19.30;17.70;;;;;;;12.19;100.00;98488.38;6241114;22;20213;-80
2022/09/26 05:10:40;;;;;;;18.60;17.00;;;;;;;12.21;100.00;98497.00;6242541;22;20218;-83
2022/09/26 05:13:07;;;;;;;18.90;17.30;;;;;;;12.25;100.00;98490.84;6243176;22;20181;-86
2022/09/26 05:15:38;;;;;;;18.80;17.10;;;;;;;12.30;100.00;98495.44;6238754;23;20206;-84
2022/09/26 05:18:07;;;;;;;18.87;17.17;;;;;;;12.33;100.00;98501.09;6239770;22;20217;-84
2022/09/26 05:20:35;;;;;;;18.53;16.93;;;;;;;12.31;100.00;98492.50;6240774;23;20203;-83
2022/09/26 05:23:04;;;;;;;17.70;16.10;;;;;;;12.38;100.00;98496.84;6270523;22;20277;-83
2022/09/26 05:28:23;;;;;;;17.57;16.07;;;;;;;12.50;100.00;98498.28;6241006;22;20198;-84
2022/09/26 05:30:52;;;;;;;17.40;15.90;;;;;;;12.57;100.00;98500.72;6240624;23;20211;-85
2022/09/26 05:33:20;;;;;;;14.87;13.67;;;;;;;12.68;100.00;98497.84;6242452;23;20208;-83
2022/09/26 05:35:53;;;;;;;15.77;14.37;;;;;;;12.76;100.00;98493.84;6243094;23;20635;-83
2022/09/26 05:38:20;;;;;;;13.03;11.93;;;;;;;12.92;100.00;98495.56;6243421;22;20206;-85
2022/09/26 05:40:55;;;;;;;10.67;9.13;;;;;;;13.06;100.00;98488.63;6243002;23;20230;-82
2022/09/26 05:43:27;;;;;;;10.03;9.23;;;;;;;13.23;100.00;98486.56;6268651;22;20214;-83
2022/09/26 05:46:06;;;;;;;10.07;9.10;;;;;;;13.45;100.00;98488.22;6232461;22;20217;-84
2022/09/26 05:48:38;;;;;;;9.10;8.30;;;;;;;13.63;100.00;98487.72;6265539;22;20200;-84
2022/09/26 05:51:15;;;;;;;8.43;7.70;;;;;;;13.83;100.00;98492.31;6267871;22;20208;-88
2022/09/26 05:53:44;;;;;;;8.83;8.10;;;;;;;13.98;100.00;98486.97;6217731;22;20674;-83
2022/09/26 05:56:14;;;;;;;7.97;7.30;;;;;;;14.13;100.00;98492.34;6239767;22;20234;-84
2022/09/26 05:58:59;;;;;;;7.10;6.40;;;;;;;14.25;100.00;98482.09;6267356;22;20372;-84
2022/09/26 06:01:45;;;;;;;7.40;6.70;;;;;;;14.36;100.00;98491.84;6243473;22;20556;-84
2022/09/26 06:04:24;;;;;;;7.50;6.87;;;;;;;14.41;100.00;98491.00;6241479;22;20239;-83
2022/09/26 06:07:11;;;;;;;7.27;6.67;;;;;;;14.48;100.00;98499.63;6240722;23;20631;-84
2022/09/26 06:09:38;;;;;;;7.63;6.93;;;;;;;14.59;100.00;98487.75;6242288;23;20292;-85
2022/09/26 06:12:20;;;;;;;8.07;7.33;;;;;;;14.64;100.00;98492.31;6219961;22;20237;-84
2022/09/26 06:14:47;;;;;;;9.00;8.27;;;;;;;14.70;100.00;98496.59;6267740;22;20247;-84
2022/09/26 06:17:13;;;;;;;8.67;7.87;;;;;;;14.77;100.00;98499.81;6241980;22;20209;-84
2022/09/26 06:19:41;;;;;;;8.27;7.67;;;;;;;14.83;100.00;98494.16;6267182;22;20215;-83
2022/09/26 06:22:08;;;;;;;8.50;7.80;;;;;;;14.97;100.00;98491.69;6214360;23;20220;-84
2022/09/26 06:24:36;;;;;;;8.50;7.80;;;;;;;15.14;100.00;98500.25;6234511;23;20658;-84
2022/09/26 06:27:03;;;;;;;8.20;7.50;;;;;;;15.21;100.00;98505.34;6193603;23;20253;-85
2022/09/26 06:29:31;;;;;;;8.73;7.93;;;;;;;15.28;100.00;98503.97;6212530;23;20205;-84
2022/09/26 06:31:57;;;;;;;8.73;7.93;;;;;;;15.42;100.00;98506.84;6211356;23;20221;-85
2022/09/26 06:34:25;;;;;;;7.87;7.27;;;;;;;15.55;100.00;98508.16;6210435;23;20214;-84
2022/09/26 06:37:06;;;;;;;7.77;7.17;;;;;;;15.73;100.00;98508.31;6212388;23;20209;-85
2022/09/26 06:39:36;;;;;;;8.30;7.60;;;;;;;15.92;100.00;98504.94;6210798;23;20218;-84
2022/09/26 06:42:06;;;;;;;9.10;8.30;;;;;;;16.07;100.00;98510.25;6210161;23;20583;-86
2022/09/26 06:44:51;;;;;;;8.93;8.17;;;;;;;16.23;100.00;98507.16;6188909;23;20267;-84
2022/09/26 06:47:24;;;;;;;8.40;7.70;;;;;;;16.27;100.00;98513.59;6212694;23;20210;-83
2022/09/26 06:50:05;;;;;;;9.27;8.50;;;;;;;16.27;100.00;98510.09;6185253;23;20236;-84
2022/09/26 06:52:35;;;;;;;9.20;8.50;;;;;;;16.41;100.00;98521.06;6185724;23;20225;-83
2022/09/26 06:55:03;;;;;;;9.33;8.53;;;;;;;16.64;100.00;98515.72;6235843;23;20209;-81
2022/09/26 06:57:41;;;;;;;10.00;9.10;;;;;;;16.84;100.00;98506.59;6185668;23;20288;-81
2022/09/26 07:00:14;;;;;;;9.50;8.53;;;;;;;17.11;100.00;98500.59;6185416;23;20219;-82
2022/09/26 07:02:58;;;;;;;9.63;8.80;;;;;;;17.15;100.00;98507.03;6185537;23;20210;-83
2022/09/26 07:05:46;;;;;;;10.30;9.40;;;;;;;17.44;100.00;98504.25;6185791;23;20213;-83
2022/09/26 07:08:13;;;;;;;9.40;8.60;;;;;;;17.67;100.00;98506.13;6211397;23;20292;-81
2022/09/26 07:10:40;;;;;;;9.93;9.03;;;;;;;17.63;100.00;98496.16;6185410;23;20229;-81
2022/09/26 07:13:12;;;;;;;9.80;9.00;;;;;;;17.59;100.00;98507.56;6235685;23;20201;-81
2022/09/26 07:15:39;;;;;;;9.70;8.80;;;;;;;17.93;100.00;98496.50;6185823;23;20226;-81
2022/09/26 07:18:24;;;;;;;9.47;8.67;;;;;;;18.23;100.00;98500.66;6211896;23;20255;-81
2022/09/26 07:21:04;;;;;;;9.93;9.00;;;;;;;18.08;100.00;98502.78;6187558;23;20213;-80
2022/09/26 07:23:45;;;;;;;9.70;8.90;;;;;;;18.06;100.00;98511.22;6215231;23;20209;-82
2022/09/26 07:26:14;;;;;;;9.63;8.70;;;;;;;18.01;100.00;98517.50;6214656;22;20215;-80
2022/09/26 07:28:40;;;;;;;9.10;8.23;;;;;;;18.17;100.00;98509.97;6242073;22;20201;-81
2022/09/26 07:31:07;;;;;;;9.43;8.53;;;;;;;18.04;100.00;98508.81;6214726;23;20204;-80
2022/09/26 07:33:53;;;;;;;8.97;8.17;;;;;;;18.12;100.00;98515.47;6242498;22;20688;-80
2022/09/26 07:36:21;;;;;;;8.97;8.27;;;;;;;18.09;100.00;98518.78;6240321;22;25546;-81
2022/09/26 07:38:48;;;;;;;8.53;7.73;;;;;;;17.94;100.00;98519.00;6215756;23;20299;-81
2022/09/26 07:41:16;;;;;;;8.77;7.70;;;;;;;17.85;100.00;98521.56;6215916;23;20231;-81
2022/09/26 07:43:43;;;;;;;8.50;7.70;;;;;;;17.77;100.00;98519.53;6226877;23;20254;-82
2022/09/26 07:52:22;;;;;;;8.27;7.47;;;;;;;17.50;100.00;98522.03;6241990;22;20319;-82
2022/09/26 07:55:11;;;;;;;8.57;7.87;;;;;;;17.40;100.00;98514.06;6244444;22;20209;-82
2022/09/26 07:57:50;;;;;;;8.23;7.53;;;;;;;17.58;100.00;98516.81;6243610;22;20251;-84
2022/09/26 08:00:39;;;;;;;7.40;6.80;;;;;;;17.78;100.00;98514.88;6216886;22;20201;-82
2022/09/26 08:03:28;;;;;;;7.53;6.90;;;;;;;18.00;100.00;98520.53;6216048;23;20216;-86
2022/09/26 08:05:59;;;;;;;7.10;6.50;;;;;;;18.40;99.06;98513.66;6266681;22;20211;-83
2022/09/26 08:08:28;;;;;;;6.17;5.67;;;;;;;18.36;97.00;98512.63;6220641;22;20680;-84
2022/09/26 08:10:57;;;;;;;6.50;5.90;;;;;;;18.15;93.82;98516.78;6247706;22;20204;-83
2022/09/26 08:13:48;;;;;;;5.80;5.30;;;;;;;18.58;88.21;98523.66;6273845;22;20215;-87
2022/09/26 08:16:22;;;;;;;6.10;5.50;;;;;;;18.73;83.82;98512.53;6246032;22;20208;-81
2022/09/26 08:18:53;;;;;;;6.73;6.20;;;;;;;18.77;86.00;98518.97;6244605;22;20222;-81
2022/09/26 08:21:21;;;;;;;6.93;6.27;;;;;;;19.00;83.02;98525.31;6229580;23;20212;-81
2022/09/26 08:23:49;;;;;;;6.23;5.73;;;;;;;18.91;80.95;98522.50;6266220;22;20586;-81
2022/09/26 08:26:39;;;;;;;6.60;6.00;;;;;;;18.81;77.35;98525.41;6237585;22;20204;-83
2022/09/26 08:29:17;;;;;;;5.87;5.47;;;;;;;18.80;77.29;98528.44;6246114;22;20532;-80
2022/09/26 08:31:47;;;;;;;6.80;6.10;;;;;;;18.86;77.50;98527.22;6244433;22;20247;-83
2022/09/26 08:34:14;;;;;;;5.87;5.40;;;;;;;18.84;78.07;98524.84;6245462;22;20231;-90
2022/09/26 08:36:43;;;;;;;6.13;5.60;;;;;;;18.72;78.95;98543.50;6191671;23;20205;-87
2022/09/26 08:39:23;;;;;;;5.77;5.33;;;;;;;18.93;77.46;98533.06;6241196;22;20611;-85
2022/09/26 08:42:39;;;;;;;5.83;5.43;;;;;;;19.30;76.61;98535.59;6224943;22;20576;-86
2022/09/26 08:49:43;;;;;;;6.30;5.70;;;;;;;19.77;72.57;98549.84;6224412;23;20281;-82
2022/09/26 08:52:39;;;;;;;6.13;5.60;;;;;;;19.90;72.59;98553.66;6215016;22;20214;-81
2022/09/26 08:55:11;;;;;;;6.10;5.63;;;;;;;19.47;72.72;98550.50;6215455;23;20205;-83
2022/09/26 08:57:43;;;;;;;6.43;5.97;;;;;;;19.32;75.37;98549.66;6242316;22;20794;-80
2022/09/26 09:00:23;;;;;;;6.33;5.83;;;;;;;19.38;74.52;98547.66;6240096;22;20554;-79
2022/09/26 09:03:01;;;;;;;6.57;6.10;;;;;;;19.32;72.41;98538.00;6217087;23;20208;-82
2022/09/26 09:05:42;;;;;;;6.63;6.07;;;;;;;19.45;73.66;98548.09;6266249;22;20212;-84
2022/09/26 09:08:14;;;;;;;6.20;5.70;;;;;;;19.67;68.79;98541.91;6241886;22;20209;-81
2022/09/26 09:11:02;;;;;;;5.80;5.30;;;;;;;19.53;67.92;98546.56;6242188;23;20205;-80
2022/09/26 09:13:59;;;;;;;5.57;5.10;;;;;;;19.53;66.46;98530.28;6242547;22;20211;-83
2022/09/26 09:17:02;;;;;;;4.90;4.50;;;;;;;19.59;65.03;98526.34;6225164;22;20300;-82
2022/09/26 09:20:06;;;;;;;5.20;4.70;;;;;;;19.56;64.66;98535.09;6242448;23;20236;-84
2022/09/26 09:23:06;;;;;;;4.90;4.60;;;;;;;19.66;65.47;98522.09;6252549;22;20590;-82
2022/09/26 09:25:50;;;;;;;5.63;5.13;;;;;;;19.58;67.04;98519.28;6232065;23;20533;-82
2022/09/26 09:28:27;;;;;;;5.03;4.73;;;;;;;19.37;69.79;98521.59;6217079;22;20680;-82
2022/09/26 09:31:00;;;;;;;4.90;4.40;;;;;;;19.46;70.85;98521.72;6242663;23;20208;-81
2022/09/26 09:33:51;;;;;;;5.13;4.73;;;;;;;19.57;68.92;98518.50;6241729;23;20275;-81
2022/09/26 09:37:03;;;;;;;3.90;3.33;;;;;;;19.78;65.31;98529.72;6133382;23;20224;-81
2022/09/26 09:40:01;;;;;;;2.40;2.30;;;;;;;19.57;61.21;98521.22;6125634;23;20283;-81
2022/09/26 09:42:49;;;;;;;2.87;2.27;;;;;;;19.36;62.05;98512.63;6216768;22;20195;-81
2022/09/26 09:45:19;;;;;;;2.10;1.87;;;;;;;19.65;58.25;98516.97;6267370;22;20235;-82
2022/09/26 09:47:45;;;;;;;1.50;1.40;;;;;;;19.83;57.64;98518.72;6243503;22;20207;-82
2022/09/26 09:50:43;;;;;;;2.23;2.00;;;;;;;19.49;58.60;98507.53;6241195;22;20674;-82
2022/09/26 09:53:32;;;;;;;2.00;1.80;;;;;;;19.80;58.73;98513.91;6240918;23;20400;-82
2022/09/26 09:56:11;;;;;;;1.90;1.70;;;;;;;19.75;57.42;98508.59;6241823;23;20275;-81
2022/09/26 09:59:05;;;;;;;1.50;1.40;;;;;;;19.95;55.81;98507.31;6243377;22;20209;-81
2022/09/26 10:01:48;;;;;;;1.83;1.40;;;;;;;19.82;57.84;98517.13;6241247;23;20681;-81
2022/09/26 10:04:36;;;;;;;1.73;1.63;;;;;;;19.74;56.57;98513.22;6216427;22;20210;-82
2022/09/26 10:07:04;;;;;;;2.00;1.60;;;;;;;19.79;57.03;98515.00;6241684;23;20207;-81
2022/09/26 10:09:38;;;;;;;1.53;1.43;;;;;;;19.95;56.37;98512.75;6267200;22;20212;-82
2022/09/26 10:12:45;;;;;;;1.67;1.57;;;;;;;20.07;56.46;98508.38;6243742;22;20257;-81
2022/09/26 10:15:46;;;;;;;1.60;1.50;;;;;;;20.58;55.38;98505.22;6244264;22;20217;-81
2022/09/26 10:18:21;;;;;;;2.63;1.70;;;;;;;20.91;53.83;98505.69;6243823;22;20221;-81
2022/09/26 10:21:07;;;;;;;1.73;1.63;;;;;;;20.96;52.58;98516.44;6244462;22;20215;-82
2022/09/26 10:23:38;;;;;;;1.63;1.53;;;;;;;21.01;51.62;98507.34;6223038;22;20222;-80
2022/09/26 10:26:12;;;;;;;1.83;1.73;;;;;;;21.20;52.09;98507.13;6272102;22;20217;-81
2022/09/26 10:28:46;;;;;;;1.80;1.70;;;;;;;21.33;49.67;98498.00;6247417;22;20246;-82
2022/09/26 10:31:28;;;;;;;1.50;1.40;;;;;;;21.27;50.39;98502.84;6247355;22;20237;-82
2022/09/26 10:34:25;;;;;;;1.67;1.57;;;;;;;21.31;49.84;98503.00;6247065;22;20212;-81
2022/09/26 10:36:51;;;;;;;1.73;1.63;;;;;;;21.64;48.87;98493.28;6207002;22;20773;-81
2022/09/26 10:42:18;;;;;;;1.87;1.77;;;;;;;21.83;48.94;98482.88;6271666;22;20210;-81
2022/09/26 10:44:49;;;;;;;1.70;1.60;;;;;;;21.74;48.60;98487.50;6196028;22;20289;-81
2022/09/26 10:47:25;;;;;;;1.80;1.53;;;;;;;21.80;49.19;98483.50;6273920;22;20543;-82
2022/09/26 10:50:15;;;;;;;2.47;1.43;;;;;;;21.32;49.56;98488.25;6272799;22;20215;-82
2022/09/26 10:53:07;;;;;;;1.60;1.50;;;;;;;21.33;50.74;98481.66;6250856;22;20223;-81
2022/09/26 10:55:43;;;;;;;1.93;1.70;;;;;;;21.20;49.99;98477.16;6247332;22;20211;-81
2022/09/26 10:58:17;;;;;;;1.87;1.77;;;;;;;21.13;49.60;98474.91;6245985;22;20282;-81
2022/09/26 11:00:50;;;;;;;1.80;1.70;;;;;;;20.92;49.87;98465.66;6222190;22;20288;-81
2022/09/26 11:03:22;;;;;;;2.20;1.57;;;;;;;20.81;50.54;98467.09;6272054;22;20206;-81
2022/09/26 11:06:27;;;;;;;1.63;1.53;;;;;;;21.14;51.56;98473.78;6225337;22;20225;-81
2022/09/26 11:09:02;;;;;;;1.90;1.70;;;;;;;21.12;50.22;98461.56;6245972;22;20245;-82
2022/09/26 11:11:50;;;;;;;1.50;1.40;;;;;;;21.24;49.65;98469.94;6250811;22;20273;-81
2022/09/26 11:14:24;;;;;;;1.50;1.40;;;;;;;21.46;49.65;98469.84;6271106;22;20211;-81
2022/09/26 11:17:01;;;;;;;1.50;1.40;;;;;;;21.67;48.42;98464.56;6245832;22;20628;-81
2022/09/26 11:20:04;;;;;;;1.83;1.50;;;;;;;22.04;48.50;98474.88;6246208;22;20211;-81
2022/09/26 11:22:36;;;;;;;1.73;1.63;;;;;;;22.36;47.83;98468.88;6071454;23;20237;-81
2022/09/26 11:25:14;;;;;;;2.20;1.53;;;;;;;22.73;46.05;98455.63;6222848;22;20265;-81
2022/09/26 11:27:46;;;;;;;1.87;1.47;;;;;;;23.01;45.45;98453.25;6220901;22;20213;-81
2022/09/26 11:30:20;;;;;;;1.70;1.60;;;;;;;23.02;45.33;98449.41;6244976;22;20210;-81
2022/09/26 11:32:56;;;;;;;1.73;1.63;;;;;;;23.29;45.33;98454.38;6246016;22;20199;-81
2022/09/26 11:36:19;;;;;;;1.70;1.60;;;;;;;23.23;45.36;98455.72;6218057;22;20204;-79
2022/09/26 11:38:49;;;;;;;2.38;1.67;;;;;;;23.38;44.27;98446.13;6221269;22;20226;-81
2022/09/26 11:41:37;;;;;;;1.70;1.60;;;;;;;23.13;45.55;98442.44;6220448;22;20255;-81
2022/09/26 11:44:28;;;;;;;1.60;1.50;;;;;;;22.51;45.18;98440.25;6245495;22;20680;-81
2022/09/26 11:47:32;;;;;;;1.63;1.40;;;;;;;22.49;45.78;98436.28;6250182;22;20231;-81
2022/09/26 11:50:19;;;;;;;1.70;1.60;;;;;;;22.35;45.60;98431.78;6245791;22;20700;-81
2022/09/26 11:53:27;;;;;;;1.30;1.30;;;;;;;22.31;45.83;98432.78;6267278;22;20211;-82
2022/09/26 11:56:08;;;;;;;2.23;1.30;;;;;;;22.30;45.80;98426.50;6272864;22;20212;-81
2022/09/26 11:59:23;;;;;;;1.20;1.20;;;;;;;22.51;44.89;98426.63;6270840;22;20612;-79
2022/09/26 12:02:14;;;;;;;1.60;1.50;;;;;;;22.57;45.68;98419.06;6262800;22;20203;-81
2022/09/26 12:04:48;;;;;;;1.60;1.50;;;;;;;22.78;46.42;98426.22;6272644;22;20279;-82
2022/09/26 12:07:21;;;;;;;1.60;1.50;;;;;;;22.85;45.85;98417.53;6272317;22;20214;-81
2022/09/26 12:10:03;;;;;;;1.35;1.25;;;;;;;22.93;43.32;98413.94;6245943;22;20208;-81
2022/09/26 12:12:41;;;;;;;1.30;1.20;;;;;;;23.06;41.78;98403.91;6272409;22;20212;-80
2022/09/26 12:15:22;;;;;;;1.63;1.40;;;;;;;22.99;41.55;98403.63;6246022;22;20200;-80
2022/09/26 12:17:52;;;;;;;1.40;1.30;;;;;;;23.13;40.82;98398.72;6248076;22;20208;-81